الصفحة الرئيسية
METAR-TAF:

METAR-TAF

مطار :

إيكالويت, نونافوت, كندا

دائرة عرض: 63-45N, خط طول: 068-33W, ارتفاع: 34 متر

مراقبة الطقس الحالي

تاريخ ووقت الإصدار 17 دقيقة قبل الساعة 11:00UTC
رياح هادئة
درجة الحرارة -25°درجة مئوية
الرطوبة 76%
ضغط 1020 hPa
الرؤية: 24.1 كم
ملبد بالغيوم على ارتفاع 5300 قدم
ثلوج خفيفة

METAR: CYFB 161100Z 00000KT 15SM -SN OVC053 M25/M28 A3011 RMK SC8 SLP203

زمن: 06:17 (11:17 UTC)

توقعات

تاريخ ووقت الإصدار 5ساعات و 38 دقيقة قبل الساعة 05:39UTC
التوقعات صالحة من16 الساعة 06 UTC إلى 17 الساعة 06 UTC
ريح 3 عقدةمن اتجاهات متغيرة
الرؤية: 10 كم
ملبد بالغيوم على ارتفاع 6000 قدم
مؤقت
من 16 الساعة 06 UTC إلى 16 الساعة 24 UTC
الرؤية: 9.7 كم
ثلوج خفيفة
من 17 الساعة 0000 UTC
ريح 3 عقدةمن اتجاهات متغيرة
الرؤية: 10 كم
غيوم متفرقة على ارتفاع 8000 قدم

TAF: CYFB 160539Z 1606/1706 VRB03KT P6SM OVC060 TEMPO 1606/1624 6SM -SN FM170000 VRB03KT P6SM SCT080 RMK NXT FCST BY 161200Z

أرصاد الطقس والتوقعات من أكثر من 4000 مطار (تقارير الطقس للمطار METAR والتنبؤ بالطقس بالمطارTAF).

المحطات المتاحة هي النقط الصفراء والحمراء على الخريطة.

حرك المؤشر فوق النقطة لمعرفة اسم المحطة.

ثم انقر لمعرفة أرصاد وتوقعات الطقس.

لتغيير الخارطة: اضغط على الأزرار الخضراء مع رمز الصليب الأسود للتكبير. على الزر الأخضر مع شرطة للتصغير، أو على الأسهم الخضراء للخرائط المجاورة.


METAR-TAF: